Weller, Illinois
Current Conditions -  °F | °C
As of 2:52 AM on Friday 31 Oct 2014 (Local Time) from KMLI Reporting Station
Overcast Overcast  
Wind Chill: 37°   Ceiling: 4700
Heat Index: 45°   Visibility: 10mi
Dew Point: 28°   Wind: 21mph
Humidity: 52%   Direction: 330°NNW
Pressure: 30.14"   Gusts: 30mph
Location:  41.3189°N, 90.1549°W
Report Text: KMLI 310752Z AUTO 33018G26KT 10SM OVC047 07/M02 A3014 RMK AO2 PK WND 34026/0752 SLP208 T00721022
Loading
Personal Weather Stations






























Interactive Weather Map
Tropical Storm Tracking
New forecast layout! Learn more

10-Day Weather Forecast

Advertisements
Track Severe Weather on mobile